Time;durP1;ratioP1;P1;durP2;ratioP2;P2;SDS_P1;SDS_P2;PMS_P1;PMS_P2;Temp;Humidity;BMP_temperature;BMP_pressure;BME280_temperature;BME280_humidity;BME280_pressure;Samples;Min_cycle;Max_cycle;Signal;HPM_P1;HPM_P2
2023/06/14 00:01:38;;;;;;;2.22;2.03;;;18.70;61.00;;;;;;4989074;28;20621;-75
2023/06/14 00:04:05;;;;;;;3.53;2.33;;;18.70;61.10;;;;;;4970802;28;20248;-77
2023/06/14 00:06:33;;;;;;;4.80;2.28;;;18.60;62.00;;;;;;4998890;28;20272;-79
2023/06/14 00:09:01;;;;;;;2.90;2.13;;;18.60;61.30;;;;;;4986078;28;20244;-77
2023/06/14 00:11:29;;;;;;;3.38;2.42;;;18.60;61.80;;;;;;5007692;28;20189;-78
2023/06/14 00:13:56;;;;;;;4.75;1.75;;;18.60;62.00;;;;;;5004976;28;20211;-81
2023/06/14 00:16:24;;;;;;;2.78;2.20;;;18.50;62.40;;;;;;4973793;28;20212;-78
2023/06/14 00:18:54;;;;;;;4.07;2.70;;;18.50;64.10;;;;;;5008537;28;20193;-79
2023/06/14 00:21:21;;;;;;;2.78;2.45;;;18.40;62.10;;;;;;5006833;28;20211;-81
2023/06/14 00:23:49;;;;;;;5.65;2.20;;;18.40;62.20;;;;;;4989987;28;20226;-78
2023/06/14 00:26:16;;;;;;;5.15;2.45;;;18.30;61.90;;;;;;4990086;28;20210;-79
2023/06/14 00:28:44;;;;;;;3.30;2.53;;;18.30;62.40;;;;;;4977527;28;20221;-79
2023/06/14 00:31:11;;;;;;;2.53;2.05;;;18.20;62.60;;;;;;4973522;28;20201;-82
2023/06/14 00:33:38;;;;;;;3.35;2.20;;;18.20;62.30;;;;;;4987782;28;20211;-81
2023/06/14 00:36:05;;;;;;;2.60;1.58;;;18.20;62.60;;;;;;4986576;28;20216;-79
2023/06/14 00:38:32;;;;;;;2.40;1.80;;;18.10;64.10;;;;;;4987466;28;20660;-78
2023/06/14 00:41:00;;;;;;;4.47;2.13;;;18.10;64.30;;;;;;5006863;28;20197;-78
2023/06/14 00:43:27;;;;;;;2.88;2.00;;;18.00;62.80;;;;;;4986350;28;20232;-80
2023/06/14 00:45:55;;;;;;;3.10;2.30;;;18.00;64.90;;;;;;4997245;28;20271;-79
2023/06/14 00:48:22;;;;;;;6.45;1.80;;;18.00;62.80;;;;;;4989976;28;20208;-79
2023/06/14 00:50:52;;;;;;;3.53;2.38;;;18.00;64.70;;;;;;4988962;28;20204;-78
2023/06/14 00:53:20;;;;;;;2.42;1.67;;;18.00;64.30;;;;;;4986362;28;20200;-75
2023/06/14 00:55:47;;;;;;;4.80;2.20;;;17.90;89.80;;;;;;4989524;28;20201;-76
2023/06/14 00:58:16;;;;;;;3.20;1.90;;;17.90;63.20;;;;;;4989593;28;20665;-76
2023/06/14 01:00:44;;;;;;;2.80;2.00;;;17.90;65.00;;;;;;4977885;28;20202;-75
2023/06/14 01:03:12;;;;;;;3.42;2.10;;;18.00;65.60;;;;;;4993436;23;20333;-88
2023/06/14 01:05:40;;;;;;;2.72;1.88;;;17.90;64.20;;;;;;4977016;28;20194;-88
2023/06/14 01:08:20;;;;;;;2.83;2.10;;;17.90;63.80;;;;;;4974524;28;20222;-86
2023/06/14 01:10:52;;;;;;;2.80;2.00;;;17.90;65.50;;;;;;4969986;28;20224;-87
2023/06/14 01:13:34;;;;;;;2.05;1.88;;;17.80;64.50;;;;;;4971537;28;20240;-89
2023/06/14 01:16:02;;;;;;;2.67;2.10;;;17.80;65.20;;;;;;4959962;28;20206;-88
2023/06/14 01:18:32;;;;;;;2.63;1.95;;;17.80;65.00;;;;;;4973330;28;20249;-89
2023/06/14 01:21:05;;;;;;;3.17;2.03;;;17.80;65.80;;;;;;4979386;28;20197;-87
2023/06/14 01:23:33;;;;;;;3.23;1.93;;;17.80;67.90;;;;;;4978940;28;20209;-89
2023/06/14 01:26:03;;;;;;;4.00;2.10;;;17.80;66.80;;;;;;4969833;28;20229;-88
2023/06/14 01:28:35;;;;;;;3.97;1.97;;;17.80;67.20;;;;;;4967508;28;20714;-90
2023/06/14 01:31:04;;;;;;;1.73;1.63;;;17.80;67.00;;;;;;4970865;28;20663;-89
2023/06/14 01:33:35;;;;;;;2.85;2.20;;;17.70;67.90;;;;;;4971021;28;20277;-86
2023/06/14 01:36:03;;;;;;;2.63;1.93;;;17.70;66.80;;;;;;4957045;28;20249;-86
2023/06/14 01:38:32;;;;;;;4.50;1.93;;;17.70;66.90;;;;;;4959654;28;20212;-87
2023/06/14 01:41:03;;;;;;;2.67;2.13;;;17.60;66.70;;;;;;4969556;28;20206;-86
2023/06/14 01:43:32;;;;;;;3.63;2.10;;;17.50;66.90;;;;;;4980034;28;20248;-89
2023/06/14 01:46:00;;;;;;;4.03;2.20;;;17.50;69.20;;;;;;4979224;28;20213;-88
2023/06/14 01:48:27;;;;;;;1.90;1.80;;;17.50;66.60;;;;;;4978256;28;20214;-88
2023/06/14 01:50:54;;;;;;;5.80;2.20;;;17.40;66.50;;;;;;4972765;28;20282;-85
2023/06/14 01:53:22;;;;;;;3.50;2.17;;;17.40;66.30;;;;;;4978080;28;20198;-89
2023/06/14 01:55:49;;;;;;;4.33;1.97;;;17.30;66.80;;;;;;4978720;28;20288;-89
2023/06/14 01:58:16;;;;;;;3.37;1.93;;;17.30;66.30;;;;;;4979772;28;20193;-87
2023/06/14 02:00:45;;;;;;;2.93;2.17;;;17.20;68.00;;;;;;4956771;28;20202;-87
2023/06/14 02:03:12;;;;;;;2.33;1.90;;;17.10;67.50;;;;;;4969926;28;20225;-88
2023/06/14 02:05:40;;;;;;;3.80;2.00;;;17.10;67.50;;;;;;4962615;28;20229;-89
2023/06/14 02:08:07;;;;;;;2.83;2.13;;;17.00;67.10;;;;;;4964252;28;20248;-88
2023/06/14 02:10:34;;;;;;;2.80;1.70;;;16.90;68.10;;;;;;4961817;28;20674;-90
2023/06/14 02:13:03;;;;;;;3.93;1.77;;;16.90;68.60;;;;;;4955265;28;20201;-88
2023/06/14 02:15:35;;;;;;;5.20;2.07;;;16.80;83.40;;;;;;4962084;28;20704;-88
2023/06/14 02:18:03;;;;;;;2.77;2.00;;;16.70;72.40;;;;;;4960555;28;20545;-90
2023/06/14 02:20:32;;;;;;;2.40;1.90;;;16.70;70.60;;;;;;4976333;28;20197;-88
2023/06/14 02:23:00;;;;;;;4.40;2.20;;;16.70;69.90;;;;;;4970520;28;20277;-90
2023/06/14 02:25:30;;;;;;;3.17;2.40;;;16.70;71.30;;;;;;4978152;28;20665;-88
2023/06/14 02:28:01;;;;;;;3.50;1.93;;;16.70;70.50;;;;;;4964221;28;20277;-88
2023/06/14 02:30:32;;;;;;;2.77;2.00;;;16.70;73.50;;;;;;4975845;28;20232;-88
2023/06/14 02:32:59;;;;;;;3.17;2.30;;;16.60;70.70;;;;;;4978320;28;20744;-90
2023/06/14 02:35:27;;;;;;;6.33;2.27;;;16.60;69.40;;;;;;4970619;28;20263;-87
2023/06/14 02:37:55;;;;;;;4.67;2.00;;;16.60;71.10;;;;;;4980161;28;20282;-89
2023/06/14 02:40:23;;;;;;;2.53;1.73;;;16.60;71.30;;;;;;4958870;28;20210;-89
2023/06/14 02:42:50;;;;;;;2.93;1.83;;;16.50;72.60;;;;;;4950688;28;20229;-87
2023/06/14 02:45:18;;;;;;;3.33;2.17;;;16.50;72.20;;;;;;4970381;28;20667;-89
2023/06/14 02:47:46;;;;;;;2.43;2.10;;;16.50;73.80;;;;;;4983769;28;20219;-88
2023/06/14 02:50:16;;;;;;;1.73;1.63;;;16.50;72.40;;;;;;4962036;28;20285;-87
2023/06/14 02:52:45;;;;;;;2.17;1.57;;;16.50;73.10;;;;;;4983002;28;20201;-88
2023/06/14 02:55:12;;;;;;;3.80;2.13;;;16.50;73.40;;;;;;4964418;28;20198;-88
2023/06/14 02:57:39;;;;;;;2.53;2.23;;;16.50;72.60;;;;;;4967266;28;20540;-90
2023/06/14 03:00:13;;;;;;;1.87;1.60;;;16.50;74.70;;;;;;4977629;28;23313;-89
2023/06/14 03:02:44;;;;;;;3.93;1.97;;;16.40;75.20;;;;;;4962889;28;20247;-88
2023/06/14 03:05:12;;;;;;;2.00;1.70;;;16.40;75.40;;;;;;4977005;28;20232;-88
2023/06/14 03:07:40;;;;;;;3.10;2.10;;;16.40;75.50;;;;;;4958886;28;20321;-88
2023/06/14 03:10:09;;;;;;;3.97;1.97;;;16.40;77.80;;;;;;4975649;28;21038;-90
2023/06/14 03:12:40;;;;;;;1.67;1.50;;;16.40;77.10;;;;;;4982374;28;20202;-91
2023/06/14 03:15:12;;;;;;;4.87;2.00;;;16.40;75.80;;;;;;4965331;28;20201;-90
2023/06/14 03:17:45;;;;;;;2.83;1.90;;;16.40;78.50;;;;;;4955874;28;20225;-89
2023/06/14 03:20:15;;;;;;;2.27;2.00;;;16.40;73.90;;;;;;4955426;28;20201;-90
2023/06/14 03:22:45;;;;;;;2.67;1.90;;;16.40;78.00;;;;;;4947603;28;20194;-89
2023/06/14 03:25:13;;;;;;;1.77;1.60;;;16.40;76.60;;;;;;4977975;28;20202;-90
2023/06/14 03:27:41;;;;;;;1.83;1.73;;;16.40;76.30;;;;;;4975838;28;20225;-88
2023/06/14 03:30:09;;;;;;;4.00;2.70;;;16.40;77.10;;;;;;4974744;28;20199;-87
2023/06/14 03:32:43;;;;;;;2.37;1.80;;;16.40;78.20;;;;;;4953768;28;20621;-90
2023/06/14 03:35:16;;;;;;;2.63;1.90;;;16.40;78.70;;;;;;4977670;28;20197;-85
2023/06/14 03:37:45;;;;;;;5.60;2.03;;;16.50;96.50;;;;;;4972016;28;20196;-85
2023/06/14 03:40:17;;;;;;;5.13;1.70;;;16.40;79.30;;;;;;4974541;28;20209;-89
2023/06/14 03:42:48;;;;;;;3.83;1.90;;;16.40;78.30;;;;;;4961102;28;20639;-87
2023/06/14 03:45:15;;;;;;;6.93;1.80;;;16.40;79.90;;;;;;4966117;28;20336;-88
2023/06/14 03:47:42;;;;;;;2.13;1.67;;;16.40;78.40;;;;;;4975280;28;20223;-88
2023/06/14 03:50:13;;;;;;;3.10;2.00;;;16.40;79.40;;;;;;4969364;28;20229;-88
2023/06/14 03:52:43;;;;;;;2.67;1.80;;;16.70;79.10;;;;;;4975983;28;20240;-88
2023/06/14 03:55:13;;;;;;;4.57;2.50;;;17.00;79.80;;;;;;4973282;28;20190;-86
2023/06/14 03:57:43;;;;;;;1.80;1.67;;;17.40;77.80;;;;;;4960610;28;20209;-91
2023/06/14 04:00:15;;;;;;;2.72;1.90;;;17.60;79.60;;;;;;4977587;28;20224;-88
2023/06/14 04:02:43;;;;;;;3.50;2.35;;;17.90;78.70;;;;;;4954727;28;20237;-87
2023/06/14 04:05:11;;;;;;;3.22;2.03;;;18.10;79.30;;;;;;4980774;28;20796;-88
2023/06/14 04:07:44;;;;;;;2.78;1.88;;;18.30;77.50;;;;;;4955648;28;20194;-86
2023/06/14 04:10:13;;;;;;;3.33;1.90;;;18.40;78.70;;;;;;4955618;28;20268;-85
2023/06/14 04:12:40;;;;;;;2.35;2.05;;;18.60;77.10;;;;;;4974414;28;20274;-85
2023/06/14 04:15:10;;;;;;;2.42;1.88;;;18.60;76.30;;;;;;4960510;28;20190;-86
2023/06/14 04:17:50;;;;;;;3.25;1.80;;;18.90;76.60;;;;;;4974199;28;20249;-85
2023/06/14 04:20:19;;;;;;;3.78;2.03;;;19.20;77.10;;;;;;4958914;28;20208;-86
2023/06/14 04:22:47;;;;;;;2.33;1.80;;;19.50;76.40;;;;;;4961841;28;20655;-86
2023/06/14 04:25:16;;;;;;;2.67;2.30;;;19.70;78.90;;;;;;4977696;28;20201;-86
2023/06/14 04:27:52;;;;;;;2.30;1.70;;;20.00;76.40;;;;;;4978192;28;20227;-86
2023/06/14 04:30:25;;;;;;;2.10;1.90;;;20.40;76.70;;;;;;4975165;28;20194;-85
2023/06/14 04:32:53;;;;;;;3.35;1.90;;;20.50;75.30;;;;;;4958004;28;20198;-85
2023/06/14 04:35:23;;;;;;;2.63;1.90;;;20.80;75.70;;;;;;4975001;28;20193;-86
2023/06/14 04:37:53;;;;;;;6.65;1.80;;;20.90;74.00;;;;;;4972783;28;20186;-84
2023/06/14 04:40:21;;;;;;;2.60;1.80;;;21.20;74.50;;;;;;4967750;28;20610;-83
2023/06/14 04:42:48;;;;;;;3.67;2.13;;;21.30;73.70;;;;;;4973748;28;20658;-83
2023/06/14 04:45:18;;;;;;;3.80;2.00;;;21.30;73.60;;;;;;4972153;28;20223;-86
2023/06/14 04:47:46;;;;;;;2.40;2.08;;;21.50;74.00;;;;;;4958281;28;20193;-84
2023/06/14 04:50:13;;;;;;;2.63;1.55;;;21.60;72.50;;;;;;4966679;28;20285;-85
2023/06/14 04:52:40;;;;;;;3.47;1.83;;;21.80;71.30;;;;;;4955034;28;20628;-87
2023/06/14 04:55:10;;;;;;;2.22;2.00;;;21.40;72.70;;;;;;4966530;28;20358;-85
2023/06/14 04:57:38;;;;;;;2.33;1.83;;;21.50;72.60;;;;;;4975678;28;20228;-86
2023/06/14 05:00:06;;;;;;;4.22;2.22;;;21.70;72.90;;;;;;4974434;28;20205;-82
2023/06/14 05:02:35;;;;;;;3.65;2.00;;;21.80;71.70;;;;;;4957296;28;20300;-86
2023/06/14 05:05:09;;;;;;;2.78;1.95;;;22.10;71.10;;;;;;4970578;28;20213;-85
2023/06/14 05:07:37;;;;;;;2.15;1.95;;;21.60;71.70;;;;;;4976867;28;20198;-88
2023/06/14 05:10:09;;;;;;;2.42;1.75;;;21.90;71.70;;;;;;4950287;28;20186;-88
2023/06/14 05:12:37;;;;;;;3.55;1.70;;;21.90;72.80;;;;;;4973239;28;20304;-87
2023/06/14 05:15:07;;;;;;;5.45;2.20;;;22.20;71.90;;;;;;4976748;28;20553;-86
2023/06/14 05:17:35;;;;;;;8.00;2.35;;;22.50;71.90;;;;;;4969907;28;20201;-86
2023/06/14 05:20:03;;;;;;;1.90;1.80;;;22.70;70.80;;;;;;4971092;28;20255;-86
2023/06/14 05:22:31;;;;;;;3.97;2.22;;;22.70;71.90;;;;;;4968387;28;20232;-87
2023/06/14 05:24:58;;;;;;;2.67;1.75;;;22.50;70.90;;;;;;4969707;28;20190;-87
2023/06/14 05:27:26;;;;;;;4.32;2.10;;;23.10;72.10;;;;;;4970529;28;20208;-84
2023/06/14 05:29:58;;;;;;;2.33;1.90;;;23.10;70.40;;;;;;4972366;28;20213;-87
2023/06/14 05:32:26;;;;;;;5.55;2.45;;;23.00;69.60;;;;;;4969895;28;20205;-86
2023/06/14 05:34:53;;;;;;;2.00;1.73;;;22.80;70.30;;;;;;4973076;28;20198;-87
2023/06/14 05:37:20;;;;;;;6.20;1.80;;;22.50;69.20;;;;;;4966054;28;20194;-86
2023/06/14 05:39:47;;;;;;;2.83;1.60;;;22.70;70.20;;;;;;4965705;28;20256;-86
2023/06/14 05:42:14;;;;;;;4.93;1.90;;;23.40;69.10;;;;;;4979079;28;20221;-85
2023/06/14 05:44:41;;;;;;;4.30;1.80;;;23.10;69.80;;;;;;4952646;28;20696;-86
2023/06/14 05:47:09;;;;;;;2.20;1.75;;;22.80;69.50;;;;;;4971687;28;20642;-86
2023/06/14 05:49:36;;;;;;;4.13;2.75;;;23.30;70.00;;;;;;4967252;28;20221;-87
2023/06/14 05:52:03;;;;;;;1.40;1.30;;;23.90;70.40;;;;;;4971108;28;20611;-84
2023/06/14 05:54:30;;;;;;;2.22;1.67;;;24.10;70.60;;;;;;4972295;28;20680;-89
2023/06/14 05:57:01;;;;;;;3.13;1.70;;;24.20;68.70;;;;;;4959147;28;20907;-86
2023/06/14 05:59:29;;;;;;;3.47;1.90;;;24.00;70.10;;;;;;4970204;28;20198;-86
2023/06/14 06:01:56;;;;;;;4.00;2.08;;;24.80;71.20;;;;;;4952112;28;20279;-87
2023/06/14 06:04:25;;;;;;;2.55;1.92;;;24.80;67.80;;;;;;4952352;28;20725;-87
2023/06/14 06:06:54;;;;;;;3.80;1.92;;;25.50;68.20;;;;;;4986541;28;20301;-88
2023/06/14 06:09:21;;;;;;;6.30;1.80;;;24.80;67.80;;;;;;4976672;28;20241;-87
2023/06/14 06:11:51;;;;;;;2.20;1.88;;;25.00;68.30;;;;;;4962643;28;20202;-84
2023/06/14 06:14:20;;;;;;;4.32;1.77;;;24.70;67.80;;;;;;4973600;28;20190;-83
2023/06/14 06:16:47;;;;;;;4.65;2.35;;;25.10;66.90;;;;;;4959031;28;20239;-85
2023/06/14 06:19:15;;;;;;;3.15;1.95;;;25.10;66.90;;;;;;4969633;28;20307;-86
2023/06/14 06:21:42;;;;;;;2.60;1.92;;;25.50;66.20;;;;;;4976025;28;20204;-84
2023/06/14 06:24:09;;;;;;;2.63;1.80;;;25.60;66.00;;;;;;4974688;28;20198;-84
2023/06/14 06:26:39;;;;;;;3.85;2.10;;;25.80;68.30;;;;;;4973881;28;20242;-86
2023/06/14 06:29:08;;;;;;;3.35;1.85;;;26.40;67.00;;;;;;4987864;28;20221;-84
2023/06/14 06:31:36;;;;;;;5.47;2.08;;;27.40;65.80;;;;;;4975000;28;20301;-85
2023/06/14 06:34:03;;;;;;;2.47;1.80;;;27.20;64.40;;;;;;4973390;28;20197;-85
2023/06/14 06:36:30;;;;;;;2.92;1.65;;;27.70;64.20;;;;;;4959193;28;20204;-86
2023/06/14 06:38:57;;;;;;;4.40;1.90;;;26.60;61.60;;;;;;4979882;28;20194;-91
2023/06/14 06:41:25;;;;;;;2.33;1.90;;;25.30;60.50;;;;;;4970723;28;20202;-89
2023/06/14 06:43:53;;;;;;;1.75;1.63;;;25.20;64.00;;;;;;4977523;28;20255;-86
2023/06/14 06:46:20;;;;;;;9.63;1.90;;;26.60;64.40;;;;;;4968259;28;20224;-86
2023/06/14 06:48:47;;;;;;;3.83;1.90;;;27.40;65.10;;;;;;4976653;28;20213;-91
2023/06/14 06:51:14;;;;;;;2.60;1.70;;;27.40;61.00;;;;;;4959112;28;20206;-87
2023/06/14 06:53:43;;;;;;;2.90;1.55;;;25.80;62.10;;;;;;4973756;28;20669;-89
2023/06/14 06:56:19;;;;;;;3.28;1.70;;;26.20;63.90;;;;;;4973556;28;20182;-87
2023/06/14 06:58:49;;;;;;;2.70;1.75;;;26.10;62.10;;;;;;4976114;28;20235;-83
2023/06/14 07:01:17;;;;;;;2.65;1.40;;;26.30;63.40;;;;;;4974997;28;20229;-88
2023/06/14 07:03:45;;;;;;;2.08;1.45;;;26.00;63.30;;;;;;4955929;28;20737;-90
2023/06/14 07:06:12;;;;;;;2.72;1.40;;;26.70;65.10;;;;;;4975418;28;20199;-90
2023/06/14 07:08:39;;;;;;;1.75;1.25;;;26.40;60.70;;;;;;4958132;28;20217;-88
2023/06/14 07:11:07;;;;;;;2.22;1.45;;;26.20;60.40;;;;;;4979486;28;20732;-90
2023/06/14 07:13:35;;;;;;;1.55;1.20;;;27.00;62.20;;;;;;4976152;28;20293;-91
2023/06/14 07:16:04;;;;;;;1.27;1.17;;;27.00;60.50;;;;;;4975659;28;20202;-90
2023/06/14 07:18:31;;;;;;;1.42;1.33;;;27.40;61.00;;;;;;4956535;28;20577;-86
2023/06/14 07:20:58;;;;;;;1.65;1.20;;;27.50;60.80;;;;;;4993047;28;20228;-85
2023/06/14 07:23:26;;;;;;;1.60;1.25;;;29.20;60.00;;;;;;4969507;28;20735;-83
2023/06/14 07:25:54;;;;;;;1.05;1.00;;;30.10;60.30;;;;;;4957764;28;20255;-83
2023/06/14 07:28:21;;;;;;;1.38;1.00;;;30.30;59.10;;;;;;4973657;28;20197;-83
2023/06/14 07:30:48;;;;;;;1.63;1.25;;;29.70;56.70;;;;;;4974464;28;20182;-83
2023/06/14 07:33:15;;;;;;;1.65;1.35;;;29.40;55.80;;;;;;4969253;28;20213;-83
2023/06/14 07:35:43;;;;;;;1.40;1.20;;;29.30;56.00;;;;;;4983941;28;20197;-83
2023/06/14 07:38:10;;;;;;;0.90;0.90;;;30.10;55.20;;;;;;4960298;28;20194;-85
2023/06/14 07:40:37;;;;;;;1.23;1.10;;;29.40;57.50;;;;;;4974837;28;20197;-87
2023/06/14 07:43:06;;;;;;;0.80;0.80;;;28.30;55.50;;;;;;4989399;28;20198;-88
2023/06/14 07:45:33;;;;;;;3.08;1.38;;;28.50;56.40;;;;;;4965443;28;20512;-87
2023/06/14 07:48:00;;;;;;;1.48;0.90;;;27.30;54.10;;;;;;4971552;28;20196;-87
2023/06/14 07:50:28;;;;;;;4.90;1.20;;;28.30;54.40;;;;;;4976157;28;20572;-86
2023/06/14 07:52:55;;;;;;;2.50;1.40;;;28.00;53.20;;;;;;4972595;28;20666;-86
2023/06/14 07:55:22;;;;;;;0.85;0.85;;;28.00;72.60;;;;;;4975518;28;20252;-89
2023/06/14 07:57:49;;;;;;;0.95;0.88;;;27.90;55.30;;;;;;4956340;28;20198;-90
2023/06/14 08:00:18;;;;;;;1.02;0.90;;;27.10;52.10;;;;;;4960149;28;20209;-91
2023/06/14 08:02:45;;;;;;;2.17;0.80;;;26.20;53.70;;;;;;4961137;28;20248;-91
2023/06/14 08:05:14;;;;;;;0.70;0.70;;;27.20;55.20;;;;;;4989928;28;20225;-85
2023/06/14 08:07:45;;;;;;;1.33;0.80;;;27.50;53.30;;;;;;4985345;28;20634;-85
2023/06/14 08:10:12;;;;;;;1.55;0.90;;;28.60;54.10;;;;;;4957783;28;20205;-87
2023/06/14 08:12:39;;;;;;;1.73;0.80;;;26.90;50.80;;;;;;4972122;28;20271;-85
2023/06/14 08:15:07;;;;;;;0.68;0.68;;;27.50;51.60;;;;;;4971249;28;20295;-88
2023/06/14 08:17:42;;;;;;;1.00;0.85;;;27.60;53.30;;;;;;4978185;28;20216;-91
2023/06/14 08:20:13;;;;;;;0.90;0.90;;;27.30;53.30;;;;;;4977268;28;20201;-86
2023/06/14 08:22:42;;;;;;;0.93;0.82;;;27.00;52.30;;;;;;4947676;28;20395;-88
2023/06/14 08:25:12;;;;;;;2.33;0.98;;;27.30;53.60;;;;;;4969414;28;20263;-88
2023/06/14 08:27:39;;;;;;;1.17;0.90;;;27.50;52.80;;;;;;4958821;28;20197;-91
2023/06/14 08:30:08;;;;;;;2.35;0.95;;;28.20;52.00;;;;;;4983246;28;20218;-90
2023/06/14 08:32:35;;;;;;;1.83;0.90;;;28.00;53.40;;;;;;4976974;28;20206;-88
2023/06/14 08:35:06;;;;;;;1.42;1.25;;;28.70;51.10;;;;;;4963832;28;20284;-90
2023/06/14 08:37:33;;;;;;;3.83;1.30;;;28.60;50.50;;;;;;4968029;28;20197;-93
2023/06/14 08:40:21;;;;;;;1.30;1.15;;;28.30;49.20;;;;;;4965369;28;20194;-92
2023/06/14 08:42:54;;;;;;;1.98;1.15;;;27.80;52.80;;;;;;4964344;28;20229;-92
2023/06/14 08:45:25;;;;;;;3.42;1.20;;;28.50;52.20;;;;;;4978641;28;20256;-92
2023/06/14 08:47:59;;;;;;;1.40;1.17;;;28.50;49.50;;;;;;4965426;28;20651;-92
2023/06/14 08:50:29;;;;;;;0.90;0.90;;;28.60;51.40;;;;;;4984288;28;20209;-93
2023/06/14 08:53:02;;;;;;;0.82;0.80;;;28.10;50.90;;;;;;4965160;28;20228;-93
2023/06/14 08:55:32;;;;;;;1.30;1.20;;;28.60;52.50;;;;;;4950020;28;20197;-95
2023/06/14 08:58:04;;;;;;;1.20;1.00;;;28.70;51.60;;;;;;4970169;28;20228;-93
2023/06/14 09:00:34;;;;;;;2.53;1.08;;;28.70;50.70;;;;;;4971261;28;20270;-94
2023/06/14 09:03:13;;;;;;;1.45;1.10;;;28.50;47.20;;;;;;4981100;28;20306;-93
2023/06/14 09:05:41;;;;;;;1.30;1.00;;;27.80;49.10;;;;;;4989790;28;20213;-92
2023/06/14 09:08:09;;;;;;;1.20;1.10;;;27.00;44.80;;;;;;4989257;23;20229;-59
2023/06/14 09:10:37;;;;;;;1.23;1.10;;;26.70;51.90;;;;;;4985041;28;20209;-59
2023/06/14 09:13:05;;;;;;;4.20;1.30;;;27.50;51.20;;;;;;4984210;28;20217;-59
2023/06/14 09:15:33;;;;;;;1.83;1.20;;;28.30;49.40;;;;;;4980831;28;20238;-59
2023/06/14 09:18:04;;;;;;;0.70;0.70;;;28.90;51.50;;;;;;4982467;28;20201;-59
2023/06/14 09:20:31;;;;;;;1.52;1.00;;;28.90;48.00;;;;;;4984449;28;20288;-58
2023/06/14 09:23:01;;;;;;;1.20;1.10;;;27.00;47.50;;;;;;5017145;28;20206;-60
2023/06/14 09:25:28;;;;;;;3.33;1.00;;;26.70;49.60;;;;;;4997176;28;20193;-59
2023/06/14 09:28:10;;;;;;;1.25;1.05;;;27.30;50.70;;;;;;4979224;28;20189;-59
2023/06/14 09:30:40;;;;;;;5.38;1.20;;;26.80;48.60;;;;;;4984353;28;20280;-59
2023/06/14 09:33:08;;;;;;;1.10;1.00;;;26.90;48.80;;;;;;4984103;28;20225;-59
2023/06/14 09:35:35;;;;;;;1.00;0.90;;;26.60;47.70;;;;;;5016400;28;20658;-59
2023/06/14 09:38:03;;;;;;;2.10;1.15;;;27.00;49.50;;;;;;4983887;28;20194;-59
2023/06/14 09:40:35;;;;;;;1.10;1.00;;;28.10;49.10;;;;;;4987338;28;20646;-59
2023/06/14 09:43:06;;;;;;;1.10;0.95;;;28.10;47.80;;;;;;5018304;28;20209;-59
2023/06/14 09:45:33;;;;;;;1.33;1.00;;;27.50;46.30;;;;;;4988475;28;20565;-59
2023/06/14 09:48:01;;;;;;;2.35;1.10;;;27.60;48.60;;;;;;4986855;28;20233;-61
2023/06/14 09:50:34;;;;;;;1.50;1.00;;;28.50;46.60;;;;;;4987424;28;20217;-59
2023/06/14 09:53:11;;;;;;;1.52;1.02;;;28.60;47.70;;;;;;4988538;28;20268;-59
2023/06/14 09:55:40;;;;;;;1.58;1.13;;;28.80;46.50;;;;;;4985888;28;20646;-59
2023/06/14 09:58:09;;;;;;;2.33;1.10;;;27.60;47.80;;;;;;4988629;28;20384;-59
2023/06/14 10:00:38;;;;;;;0.90;0.88;;;27.60;69.50;;;;;;4988666;28;20615;-59
2023/06/14 10:03:19;;;;;;;1.27;0.93;;;28.00;46.90;;;;;;4980257;28;20317;-59
2023/06/14 10:05:48;;;;;;;2.70;1.23;;;28.50;46.50;;;;;;4985742;28;20221;-59
2023/06/14 10:08:18;;;;;;;1.33;1.05;;;27.70;45.90;;;;;;5009766;28;20327;-59
2023/06/14 10:10:45;;;;;;;2.80;1.20;;;27.90;45.60;;;;;;5004857;28;20588;-60
2023/06/14 10:13:14;;;;;;;1.63;1.10;;;27.10;45.40;;;;;;5004599;28;20196;-60
2023/06/14 10:16:20;;;;;;;4.20;1.33;;;27.30;47.60;;;;;;5006323;28;20185;-60
2023/06/14 10:19:24;;;;;;;1.60;1.50;;;28.70;44.80;;;;;;4904132;29;20207;-60
2023/06/14 10:22:10;;;;;;;2.20;1.27;;;29.40;44.80;;;;;;4999155;28;20711;-60
2023/06/14 10:24:44;;;;;;;2.03;1.30;;;30.00;43.10;;;;;;5005040;28;20293;-60
2023/06/14 10:27:17;;;;;;;1.13;1.02;;;29.60;42.10;;;;;;5003014;28;20181;-60
2023/06/14 10:30:07;;;;;;;1.52;1.20;;;28.80;43.30;;;;;;5019026;28;20239;-60
2023/06/14 10:32:34;;;;;;;2.20;1.30;;;28.60;44.50;;;;;;5004456;28;20236;-59
2023/06/14 10:35:08;;;;;;;2.20;1.40;;;27.40;44.20;;;;;;5006736;28;20254;-60
2023/06/14 10:37:36;;;;;;;1.33;1.02;;;28.10;45.90;;;;;;5003750;28;20252;-59
2023/06/14 10:40:04;;;;;;;2.00;1.40;;;28.50;44.20;;;;;;5004466;28;20823;-61
2023/06/14 10:42:32;;;;;;;1.50;1.40;;;27.30;42.70;;;;;;5004630;28;20201;-62
2023/06/14 10:45:00;;;;;;;1.30;1.20;;;27.40;43.60;;;;;;4999588;28;20193;-62
2023/06/14 10:47:30;;;;;;;1.52;1.38;;;27.30;44.00;;;;;;5014575;28;20204;-62
2023/06/14 10:50:08;;;;;;;2.38;1.20;;;27.50;44.10;;;;;;4999532;28;20232;-62
2023/06/14 10:52:42;;;;;;;1.58;1.48;;;28.70;43.60;;;;;;4996857;28;20211;-62
2023/06/14 10:55:21;;;;;;;2.35;1.45;;;29.20;42.40;;;;;;5001360;28;20185;-62
2023/06/14 10:57:51;;;;;;;1.58;1.48;;;28.20;42.40;;;;;;5006731;28;20557;-62
2023/06/14 11:00:24;;;;;;;3.08;1.38;;;27.10;44.50;;;;;;5003584;28;20189;-62
2023/06/14 11:03:22;;;;;;;1.50;1.40;;;27.30;44.00;;;;;;5001102;28;20200;-62
2023/06/14 11:05:54;;;;;;;2.83;1.30;;;28.30;43.80;;;;;;5015979;28;20209;-62
2023/06/14 11:08:40;;;;;;;1.92;1.40;;;28.70;42.50;;;;;;5002776;28;20311;-62
2023/06/14 11:11:12;;;;;;;2.20;1.60;;;27.50;43.50;;;;;;5008327;28;20879;-62
2023/06/14 11:13:45;;;;;;;1.83;1.55;;;27.50;42.80;;;;;;5003986;28;20219;-62
2023/06/14 11:16:16;;;;;;;1.40;1.30;;;27.50;43.20;;;;;;5021173;28;20220;-62
2023/06/14 11:18:45;;;;;;;1.38;1.27;;;28.10;42.80;;;;;;5005362;28;20205;-62
2023/06/14 11:21:16;;;;;;;2.33;1.65;;;29.00;42.00;;;;;;5006559;28;20211;-62
2023/06/14 11:23:50;;;;;;;1.40;1.20;;;28.60;42.20;;;;;;5007143;28;20197;-62
2023/06/14 11:26:26;;;;;;;1.60;1.45;;;26.50;38.00;;;;;;5020898;28;20197;-62
2023/06/14 11:28:57;;;;;;;2.50;1.63;;;27.70;40.80;;;;;;5001007;28;20216;-62
2023/06/14 11:31:26;;;;;;;1.52;1.27;;;28.10;43.30;;;;;;5021380;28;20630;-62
2023/06/14 11:33:55;;;;;;;3.55;1.45;;;27.80;42.10;;;;;;5003418;28;20207;-62
2023/06/14 11:36:23;;;;;;;2.38;1.50;;;27.70;41.70;;;;;;5019943;28;20258;-62
2023/06/14 11:39:09;;;;;;;5.68;1.90;;;28.20;41.90;;;;;;5000530;28;20193;-62
2023/06/14 11:41:41;;;;;;;1.48;1.38;;;28.40;41.20;;;;;;5003551;28;20189;-62
2023/06/14 11:44:09;;;;;;;2.05;1.63;;;28.00;42.20;;;;;;5035673;28;20565;-62
2023/06/14 11:46:36;;;;;;;2.65;1.55;;;28.00;39.90;;;;;;5017736;28;20205;-62
2023/06/14 11:49:04;;;;;;;1.83;1.40;;;28.10;43.00;;;;;;5005536;28;20299;-62
2023/06/14 11:51:35;;;;;;;1.98;1.48;;;28.30;41.60;;;;;;4986792;28;20213;-62
2023/06/14 11:54:05;;;;;;;1.60;1.30;;;27.40;42.20;;;;;;4999944;28;20660;-62
2023/06/14 11:56:33;;;;;;;1.50;1.40;;;27.40;40.40;;;;;;5000076;28;20212;-62
2023/06/14 11:59:05;;;;;;;1.58;1.33;;;27.90;42.50;;;;;;5009021;28;20192;-61
2023/06/14 12:01:37;;;;;;;1.63;1.50;;;27.20;41.60;;;;;;5002939;28;20181;-62
2023/06/14 12:04:05;;;;;;;1.58;1.48;;;26.20;41.60;;;;;;5011072;28;20252;-62
2023/06/14 12:06:33;;;;;;;1.80;1.70;;;26.50;43.50;;;;;;5016534;28;20239;-61
2023/06/14 12:09:04;;;;;;;1.65;1.55;;;26.90;42.70;;;;;;4998678;28;20629;-62
2023/06/14 12:11:36;;;;;;;3.42;1.80;;;27.40;42.80;;;;;;5000850;28;20699;-61
2023/06/14 12:14:05;;;;;;;2.10;1.52;;;27.10;42.50;;;;;;5002878;28;20603;-62
2023/06/14 12:16:34;;;;;;;1.67;1.58;;;26.40;41.50;;;;;;5000346;28;20332;-62
2023/06/14 12:19:17;;;;;;;3.25;1.75;;;27.20;43.10;;;;;;4998418;28;20190;-62
2023/06/14 12:21:52;;;;;;;1.88;1.55;;;26.80;43.90;;;;;;5000816;28;20208;-63
2023/06/14 12:24:19;;;;;;;5.60;1.80;;;26.20;43.90;;;;;;4997086;28;20220;-63
2023/06/14 12:26:47;;;;;;;1.50;1.40;;;26.10;44.40;;;;;;5002852;28;20684;-62
2023/06/14 12:29:14;;;;;;;3.67;1.75;;;25.90;43.90;;;;;;5020366;28;20279;-62
2023/06/14 12:31:41;;;;;;;1.75;1.60;;;25.80;44.70;;;;;;4993371;28;20201;-62
2023/06/14 12:34:09;;;;;;;1.70;1.60;;;26.20;44.90;;;;;;5004123;28;20208;-62
2023/06/14 12:36:41;;;;;;;2.20;1.60;;;25.10;44.20;;;;;;5007951;28;20224;-62
2023/06/14 12:39:08;;;;;;;1.98;1.65;;;25.10;46.20;;;;;;5005759;28;20185;-62
2023/06/14 12:41:36;;;;;;;3.47;1.80;;;25.50;46.60;;;;;;5003590;28;20575;-62
2023/06/14 12:44:04;;;;;;;2.10;1.90;;;25.40;46.00;;;;;;5006197;28;20205;-62
2023/06/14 12:46:32;;;;;;;1.70;1.60;;;25.40;46.20;;;;;;5007812;28;20193;-62
2023/06/14 12:48:59;;;;;;;2.08;1.60;;;25.30;48.10;;;;;;5006539;28;20215;-62
2023/06/14 12:51:27;;;;;;;1.48;1.38;;;25.40;68.70;;;;;;5005961;28;20848;-62
2023/06/14 12:53:54;;;;;;;2.05;1.73;;;25.80;46.10;;;;;;5005319;28;20696;-65
2023/06/14 12:56:21;;;;;;;2.38;1.67;;;25.30;47.00;;;;;;5006558;28;20216;-62
2023/06/14 12:58:50;;;;;;;2.95;1.73;;;25.20;47.00;;;;;;5005672;28;20786;-62
2023/06/14 13:01:18;;;;;;;2.78;1.90;;;25.30;46.20;;;;;;4999148;28;20203;-62